Time;durP1;ratioP1;P1;durP2;ratioP2;P2;SDS_P1;SDS_P2;PMS_P1;PMS_P2;Temp;Humidity;BMP_temperature;BMP_pressure;BME280_temperature;BME280_humidity;BME280_pressure;Samples;Min_cycle;Max_cycle;Signal;HPM_P1;HPM_P2
2022/12/08 00:02:02;;;;;;;10.70;8.98;;;;;;;;;;5041435;28;20198;-69
2022/12/08 00:04:28;;;;;;;11.05;8.35;;;;;;;;;;5041092;28;20197;-68
2022/12/08 00:09:44;;;;;;;9.80;8.48;;;;;;;;;;5003088;28;20265;-68
2022/12/08 00:12:11;;;;;;;9.27;7.28;;;;;;;;;;5041355;28;20204;-69
2022/12/08 00:14:38;;;;;;;8.68;7.72;;;;;;;;;;5041269;28;20198;-68
2022/12/08 00:17:08;;;;;;;10.05;7.57;;;;;;;;;;5041299;28;20391;-68
2022/12/08 00:19:34;;;;;;;9.32;8.05;;;;;;;;;;5041009;27;20540;-68
2022/12/08 00:22:02;;;;;;;11.00;8.05;;;;;;;;;;5041076;28;20206;-68
2022/12/08 00:24:30;;;;;;;11.00;7.50;;;;;;;;;;5041450;28;20506;-68
2022/12/08 00:26:56;;;;;;;9.60;8.13;;;;;;;;;;5041042;28;20212;-68
2022/12/08 00:29:23;;;;;;;10.70;8.05;;;;;;;;;;5040771;28;20218;-68
2022/12/08 00:31:50;;;;;;;11.05;7.95;;;;;;;;;;5041357;27;20288;-68
2022/12/08 00:34:17;;;;;;;12.00;7.65;;;;;;;;;;5040999;28;20500;-68
2022/12/08 00:36:44;;;;;;;10.10;7.55;;;;;;;;;;5040882;28;20206;-68
2022/12/08 00:39:10;;;;;;;9.75;7.68;;;;;;;;;;5040726;28;20194;-68
2022/12/08 00:44:20;;;;;;;9.45;7.55;;;;;;;;;;5040724;28;20273;-68
2022/12/08 00:46:47;;;;;;;9.05;7.03;;;;;;;;;;5040999;28;20197;-68
2022/12/08 00:49:14;;;;;;;8.93;7.45;;;;;;;;;;5040314;28;20282;-68
2022/12/08 00:51:42;;;;;;;8.15;7.32;;;;;;;;;;5040978;28;20206;-68
2022/12/08 00:54:08;;;;;;;9.65;7.80;;;;;;;;;;5040877;28;20204;-68
2022/12/08 00:56:35;;;;;;;12.85;8.43;;;;;;;;;;5040771;28;20198;-68
2022/12/08 00:59:01;;;;;;;8.20;7.35;;;;;;;;;;5040282;28;20201;-68
2022/12/08 01:01:27;;;;;;;9.00;7.57;;;;;;;;;;5040571;28;20204;-68
2022/12/08 01:03:54;;;;;;;9.95;7.60;;;;;;;;;;5040260;28;20206;-68
2022/12/08 01:06:20;;;;;;;12.48;7.90;;;;;;;;;;5040301;28;20220;-68
2022/12/08 01:08:48;;;;;;;9.45;7.97;;;;;;;;;;5039975;28;20218;-68
2022/12/08 01:11:17;;;;;;;12.15;8.30;;;;;;;;;;5040467;28;20190;-68
2022/12/08 01:13:44;;;;;;;8.60;7.57;;;;;;;;;;5040524;28;20205;-68
2022/12/08 01:16:18;;;;;;;9.25;7.63;;;;;;;;;;5040302;28;20204;-68
2022/12/08 01:18:44;;;;;;;8.63;7.70;;;;;;;;;;5040262;28;20201;-68
2022/12/08 01:21:10;;;;;;;9.10;8.07;;;;;;;;;;5040257;28;20206;-68
2022/12/08 01:23:37;;;;;;;9.95;8.27;;;;;;;;;;5040107;28;20198;-68
2022/12/08 01:26:05;;;;;;;8.50;7.60;;;;;;;;;;5040490;28;20505;-68
2022/12/08 01:28:32;;;;;;;8.88;7.70;;;;;;;;;;5039736;28;20240;-68
2022/12/08 01:30:59;;;;;;;9.60;7.90;;;;;;;;;;5039944;28;20212;-68
2022/12/08 01:33:26;;;;;;;9.80;7.75;;;;;;;;;;5040001;28;20261;-68
2022/12/08 01:35:52;;;;;;;9.18;7.20;;;;;;;;;;5040091;28;20461;-68
2022/12/08 01:38:18;;;;;;;8.40;7.20;;;;;;;;;;5040076;28;20198;-68
2022/12/08 01:40:45;;;;;;;8.15;7.30;;;;;;;;;;5039969;28;20212;-68
2022/12/08 01:43:14;;;;;;;8.63;7.72;;;;;;;;;;5039870;28;20434;-68
2022/12/08 01:45:40;;;;;;;8.95;7.65;;;;;;;;;;5039908;28;20198;-68
2022/12/08 01:48:09;;;;;;;9.15;7.90;;;;;;;;;;5039792;28;20505;-68
2022/12/08 01:50:35;;;;;;;10.30;7.82;;;;;;;;;;5040134;28;20221;-68
2022/12/08 01:53:06;;;;;;;9.10;7.57;;;;;;;;;;5039816;28;20202;-68
2022/12/08 01:55:34;;;;;;;8.55;7.38;;;;;;;;;;5038924;28;20214;-68
2022/12/08 01:58:03;;;;;;;10.07;7.43;;;;;;;;;;5039523;28;20206;-68
2022/12/08 02:00:30;;;;;;;9.25;7.72;;;;;;;;;;5039744;28;20194;-68
2022/12/08 02:02:58;;;;;;;10.43;7.53;;;;;;;;;;5039775;28;20198;-68
2022/12/08 02:05:25;;;;;;;10.07;7.53;;;;;;;;;;5039274;28;20198;-68
2022/12/08 02:07:52;;;;;;;8.75;7.85;;;;;;;;;;5039257;28;20273;-68
2022/12/08 02:10:22;;;;;;;8.55;7.20;;;;;;;;;;5039345;28;20220;-68
2022/12/08 02:12:49;;;;;;;9.43;7.43;;;;;;;;;;5039659;28;20204;-68
2022/12/08 02:15:16;;;;;;;10.18;8.20;;;;;;;;;;5039426;28;20388;-68
2022/12/08 02:17:50;;;;;;;8.27;7.22;;;;;;;;;;5039554;28;20198;-68
2022/12/08 02:20:26;;;;;;;9.77;8.40;;;;;;;;;;5039573;28;20209;-68
2022/12/08 02:22:55;;;;;;;10.75;8.20;;;;;;;;;;5039695;28;20211;-68
2022/12/08 02:25:25;;;;;;;8.98;7.90;;;;;;;;;;5039614;28;20225;-68
2022/12/08 02:27:59;;;;;;;8.90;7.45;;;;;;;;;;5039116;28;20218;-68
2022/12/08 02:30:31;;;;;;;10.00;7.55;;;;;;;;;;5039019;28;20227;-68
2022/12/08 02:33:21;;;;;;;9.20;7.97;;;;;;;;;;5039388;28;20204;-68
2022/12/08 02:35:53;;;;;;;8.55;7.65;;;;;;;;;;5039406;28;20219;-68
2022/12/08 02:38:21;;;;;;;11.32;8.05;;;;;;;;;;5039176;28;20201;-68
2022/12/08 02:40:50;;;;;;;9.45;8.02;;;;;;;;;;5038899;28;20264;-68
2022/12/08 02:43:20;;;;;;;11.45;8.07;;;;;;;;;;5039386;28;20197;-68
2022/12/08 02:45:48;;;;;;;9.93;8.00;;;;;;;;;;5038631;28;20198;-68
2022/12/08 02:48:15;;;;;;;10.90;7.80;;;;;;;;;;5038768;28;20201;-68
2022/12/08 02:50:41;;;;;;;10.18;7.95;;;;;;;;;;5039015;28;20221;-68
2022/12/08 02:53:09;;;;;;;10.40;8.35;;;;;;;;;;5038780;28;20519;-68
2022/12/08 02:55:39;;;;;;;9.82;7.55;;;;;;;;;;5039006;28;20212;-68
2022/12/08 02:58:16;;;;;;;9.13;8.07;;;;;;;;;;5038603;28;20470;-68
2022/12/08 03:00:48;;;;;;;8.85;7.45;;;;;;;;;;5039128;28;20531;-68
2022/12/08 03:03:19;;;;;;;8.82;7.55;;;;;;;;;;5038924;28;20198;-68
2022/12/08 03:05:53;;;;;;;10.73;7.82;;;;;;;;;;5039546;28;20197;-68
2022/12/08 03:08:23;;;;;;;10.07;7.47;;;;;;;;;;5042313;28;20197;-68
2022/12/08 03:10:52;;;;;;;9.02;7.95;;;;;;;;;;5042281;28;20222;-68
2022/12/08 03:13:20;;;;;;;8.80;7.90;;;;;;;;;;5042558;28;20205;-68
2022/12/08 03:15:48;;;;;;;9.45;8.30;;;;;;;;;;5042055;28;20547;-68
2022/12/08 03:18:15;;;;;;;10.18;8.20;;;;;;;;;;5041864;28;20198;-68
2022/12/08 03:20:43;;;;;;;12.38;8.20;;;;;;;;;;5041988;28;20227;-68
2022/12/08 03:23:11;;;;;;;8.50;7.47;;;;;;;;;;5042215;28;20204;-68
2022/12/08 03:25:41;;;;;;;9.43;7.90;;;;;;;;;;5042522;28;20276;-68
2022/12/08 03:28:08;;;;;;;12.18;8.02;;;;;;;;;;5041754;28;20390;-68
2022/12/08 03:30:36;;;;;;;12.10;8.15;;;;;;;;;;5041670;28;20262;-68
2022/12/08 03:33:04;;;;;;;9.68;8.32;;;;;;;;;;5042075;28;20523;-68
2022/12/08 03:35:33;;;;;;;9.60;8.05;;;;;;;;;;5041887;28;20214;-68
2022/12/08 03:38:02;;;;;;;9.43;7.72;;;;;;;;;;5041469;28;20404;-68
2022/12/08 03:40:28;;;;;;;10.18;8.00;;;;;;;;;;5041801;28;20193;-68
2022/12/08 03:42:55;;;;;;;12.07;7.78;;;;;;;;;;5041791;28;20360;-68
2022/12/08 03:45:22;;;;;;;9.45;7.85;;;;;;;;;;5041478;28;20274;-68
2022/12/08 03:47:48;;;;;;;9.23;7.78;;;;;;;;;;5041527;28;20197;-68
2022/12/08 03:50:14;;;;;;;8.95;7.90;;;;;;;;;;5041475;28;20213;-68
2022/12/08 03:52:41;;;;;;;8.73;7.78;;;;;;;;;;5041687;28;20205;-68
2022/12/08 03:55:07;;;;;;;10.40;8.75;;;;;;;;;;5041741;27;20194;-68
2022/12/08 03:57:34;;;;;;;8.38;7.55;;;;;;;;;;5041395;28;20209;-68
2022/12/08 04:00:01;;;;;;;12.15;7.68;;;;;;;;;;5041403;28;20193;-68
2022/12/08 04:02:27;;;;;;;10.18;7.47;;;;;;;;;;5041630;28;20399;-68
2022/12/08 04:04:54;;;;;;;10.55;8.20;;;;;;;;;;5041563;28;20197;-68
2022/12/08 04:07:20;;;;;;;9.45;7.85;;;;;;;;;;5041573;28;20213;-68
2022/12/08 04:09:46;;;;;;;10.50;7.95;;;;;;;;;;5041104;28;20537;-68
2022/12/08 04:12:13;;;;;;;9.55;8.02;;;;;;;;;;5041293;28;20202;-68
2022/12/08 04:14:39;;;;;;;11.73;8.63;;;;;;;;;;5041151;28;20202;-68
2022/12/08 04:17:07;;;;;;;8.75;7.55;;;;;;;;;;5040374;28;20212;-68
2022/12/08 04:19:33;;;;;;;10.10;7.63;;;;;;;;;;5041147;28;20204;-68
2022/12/08 04:21:59;;;;;;;9.57;7.25;;;;;;;;;;5040885;28;20213;-68
2022/12/08 04:24:25;;;;;;;9.65;7.60;;;;;;;;;;5041189;28;20394;-68
2022/12/08 04:26:52;;;;;;;10.70;7.93;;;;;;;;;;5041003;28;20288;-68
2022/12/08 04:29:18;;;;;;;11.32;8.20;;;;;;;;;;5040721;28;20217;-68
2022/12/08 04:31:44;;;;;;;9.73;7.57;;;;;;;;;;5041159;28;20198;-68
2022/12/08 04:34:12;;;;;;;8.68;7.55;;;;;;;;;;5041190;28;20210;-68
2022/12/08 04:36:38;;;;;;;8.98;7.50;;;;;;;;;;5040983;28;20498;-68
2022/12/08 04:39:04;;;;;;;10.82;8.43;;;;;;;;;;5040675;28;20198;-68
2022/12/08 04:41:31;;;;;;;9.15;7.85;;;;;;;;;;5040877;28;20200;-68
2022/12/08 04:43:57;;;;;;;12.15;7.97;;;;;;;;;;5041100;28;20383;-68
2022/12/08 04:46:23;;;;;;;11.43;9.00;;;;;;;;;;5040822;28;20265;-68
2022/12/08 04:48:50;;;;;;;10.07;8.00;;;;;;;;;;5040510;27;20207;-68
2022/12/08 04:51:18;;;;;;;7.95;7.20;;;;;;;;;;5040699;28;20424;-68
2022/12/08 04:53:44;;;;;;;10.13;8.27;;;;;;;;;;5040765;28;20198;-68
2022/12/08 04:56:11;;;;;;;9.05;7.20;;;;;;;;;;5040493;28;20202;-68
2022/12/08 04:58:38;;;;;;;9.15;8.02;;;;;;;;;;5040545;28;20225;-68
2022/12/08 05:01:04;;;;;;;11.07;8.13;;;;;;;;;;5040609;28;20194;-68
2022/12/08 05:03:30;;;;;;;11.05;8.05;;;;;;;;;;5040459;28;20198;-68
2022/12/08 05:05:59;;;;;;;10.73;8.07;;;;;;;;;;5040488;28;20206;-68
2022/12/08 05:08:26;;;;;;;9.30;7.90;;;;;;;;;;5040294;28;20228;-68
2022/12/08 05:10:53;;;;;;;12.65;8.77;;;;;;;;;;5040191;28;20244;-68
2022/12/08 05:13:19;;;;;;;9.32;8.23;;;;;;;;;;5040480;28;20205;-68
2022/12/08 05:15:45;;;;;;;10.15;8.20;;;;;;;;;;5040212;28;20201;-68
2022/12/08 05:18:12;;;;;;;11.77;8.85;;;;;;;;;;5040160;28;20365;-68
2022/12/08 05:20:38;;;;;;;10.80;7.93;;;;;;;;;;5040077;28;20457;-68
2022/12/08 05:23:04;;;;;;;9.50;8.55;;;;;;;;;;5040125;28;20198;-68
2022/12/08 05:25:32;;;;;;;10.75;9.20;;;;;;;;;;5040184;28;20202;-68
2022/12/08 05:27:58;;;;;;;14.25;10.32;;;;;;;;;;5040277;28;20225;-68
2022/12/08 05:30:24;;;;;;;15.10;9.85;;;;;;;;;;5040096;28;20232;-68
2022/12/08 05:32:51;;;;;;;12.27;9.55;;;;;;;;;;5040415;28;20204;-68
2022/12/08 05:35:17;;;;;;;13.30;9.35;;;;;;;;;;5039997;28;20209;-68
2022/12/08 05:37:43;;;;;;;10.85;9.35;;;;;;;;;;5040123;28;20204;-68
2022/12/08 05:40:10;;;;;;;10.60;9.20;;;;;;;;;;5039993;28;20264;-68
2022/12/08 05:42:38;;;;;;;12.65;9.63;;;;;;;;;;5040062;28;20204;-68
2022/12/08 05:45:04;;;;;;;13.10;9.75;;;;;;;;;;5039889;28;20274;-68
2022/12/08 05:47:31;;;;;;;11.90;8.60;;;;;;;;;;5039867;28;20205;-68
2022/12/08 05:49:57;;;;;;;12.77;9.40;;;;;;;;;;5039650;28;20428;-68
2022/12/08 05:52:23;;;;;;;14.73;9.63;;;;;;;;;;5039697;28;20213;-68
2022/12/08 05:54:49;;;;;;;14.75;9.88;;;;;;;;;;5039787;28;20197;-68
2022/12/08 05:57:16;;;;;;;11.98;9.30;;;;;;;;;;5039791;28;20194;-68
2022/12/08 05:59:43;;;;;;;11.02;9.40;;;;;;;;;;5039297;28;20204;-68
2022/12/08 06:02:10;;;;;;;15.52;10.05;;;;;;;;;;5039557;28;20268;-68
2022/12/08 06:04:36;;;;;;;11.35;9.40;;;;;;;;;;5039370;28;20200;-68
2022/12/08 06:07:02;;;;;;;16.48;10.95;;;;;;;;;;5039404;28;20219;-68
2022/12/08 06:09:29;;;;;;;15.70;9.98;;;;;;;;;;5039342;28;20208;-68
2022/12/08 06:11:55;;;;;;;15.50;10.63;;;;;;;;;;5039487;28;20221;-68
2022/12/08 06:14:21;;;;;;;14.30;10.55;;;;;;;;;;5039591;28;20442;-68
2022/12/08 06:16:49;;;;;;;13.25;9.38;;;;;;;;;;5039205;28;20206;-68
2022/12/08 06:19:15;;;;;;;10.98;9.13;;;;;;;;;;5039210;28;20198;-68
2022/12/08 06:21:42;;;;;;;10.45;9.18;;;;;;;;;;5039519;28;20197;-68
2022/12/08 06:24:08;;;;;;;10.57;8.60;;;;;;;;;;5039441;28;20527;-68
2022/12/08 06:26:35;;;;;;;10.70;8.80;;;;;;;;;;5039610;28;20198;-68
2022/12/08 06:29:03;;;;;;;12.48;8.20;;;;;;;;;;5039116;28;20590;-68
2022/12/08 06:31:30;;;;;;;9.65;7.93;;;;;;;;;;5039375;28;20288;-68
2022/12/08 06:33:57;;;;;;;13.55;8.85;;;;;;;;;;5039280;28;20235;-68
2022/12/08 06:36:25;;;;;;;11.52;9.63;;;;;;;;;;5039125;28;20513;-68
2022/12/08 06:38:51;;;;;;;15.00;8.65;;;;;;;;;;5039200;28;20197;-68
2022/12/08 06:41:17;;;;;;;13.75;9.25;;;;;;;;;;5038591;28;20194;-70
2022/12/08 06:43:44;;;;;;;13.98;9.80;;;;;;;;;;5039276;28;20206;-70
2022/12/08 06:46:11;;;;;;;11.23;8.65;;;;;;;;;;5039195;28;20205;-70
2022/12/08 06:48:38;;;;;;;10.27;8.63;;;;;;;;;;5038706;28;20205;-70
2022/12/08 06:51:10;;;;;;;14.20;9.43;;;;;;;;;;5039191;28;20386;-70
2022/12/08 06:53:37;;;;;;;15.15;9.02;;;;;;;;;;5038911;28;20455;-70
2022/12/08 06:56:03;;;;;;;13.15;10.07;;;;;;;;;;5038888;28;20198;-70
2022/12/08 06:58:29;;;;;;;13.38;9.20;;;;;;;;;;5038726;28;20204;-68
2022/12/08 07:00:56;;;;;;;13.10;9.35;;;;;;;;;;5039135;28;20208;-58
2022/12/08 07:03:22;;;;;;;16.70;10.40;;;;;;;;;;5020639;28;20213;-58
2022/12/08 07:05:51;;;;;;;12.15;9.15;;;;;;;;;;5031230;28;20220;-56
2022/12/08 07:08:18;;;;;;;15.05;8.98;;;;;;;;;;5020722;28;20572;-57
2022/12/08 07:10:45;;;;;;;15.63;9.15;;;;;;;;;;5031775;28;20233;-58
2022/12/08 07:13:11;;;;;;;12.23;9.10;;;;;;;;;;5032050;28;20217;-58
2022/12/08 07:15:37;;;;;;;17.05;9.85;;;;;;;;;;5032730;28;20468;-57
2022/12/08 07:18:04;;;;;;;14.48;9.93;;;;;;;;;;5032906;28;20206;-57
2022/12/08 07:20:30;;;;;;;12.52;8.90;;;;;;;;;;5032544;28;20213;-57
2022/12/08 07:22:56;;;;;;;10.63;8.35;;;;;;;;;;5030443;28;20206;-58
2022/12/08 07:25:24;;;;;;;11.43;8.55;;;;;;;;;;5027886;28;20210;-57
2022/12/08 07:27:52;;;;;;;13.82;8.68;;;;;;;;;;5030231;28;20225;-58
2022/12/08 07:30:18;;;;;;;10.13;8.23;;;;;;;;;;5026949;28;20259;-58
2022/12/08 07:32:44;;;;;;;12.23;8.40;;;;;;;;;;5030387;28;20221;-58
2022/12/08 07:35:11;;;;;;;15.40;9.52;;;;;;;;;;5030669;28;20214;-58
2022/12/08 07:37:37;;;;;;;16.33;8.82;;;;;;;;;;5031459;28;20214;-57
2022/12/08 07:40:04;;;;;;;10.82;8.82;;;;;;;;;;5031410;28;20525;-58
2022/12/08 07:42:32;;;;;;;20.48;10.50;;;;;;;;;;5031022;28;20221;-57
2022/12/08 07:44:58;;;;;;;16.88;11.45;;;;;;;;;;5031238;28;20225;-57
2022/12/08 07:47:24;;;;;;;18.17;12.45;;;;;;;;;;5031335;28;20210;-56
2022/12/08 07:49:50;;;;;;;19.88;11.23;;;;;;;;;;5030907;28;20210;-58
2022/12/08 07:52:17;;;;;;;19.30;12.30;;;;;;;;;;5030436;28;20550;-57
2022/12/08 07:54:43;;;;;;;17.52;12.43;;;;;;;;;;5033548;28;20317;-58
2022/12/08 07:57:09;;;;;;;16.75;11.27;;;;;;;;;;5033810;28;20206;-58
2022/12/08 07:59:37;;;;;;;18.45;12.35;;;;;;;;;;5034075;28;20408;-58
2022/12/08 08:02:03;;;;;;;17.40;12.02;;;;;;;;;;5034181;28;20220;-58
2022/12/08 08:04:30;;;;;;;19.92;12.73;;;;;;;;;;5034050;28;20501;-58
2022/12/08 08:06:56;;;;;;;16.48;12.13;;;;;;;;;;5034410;28;20214;-58
2022/12/08 08:09:22;;;;;;;14.85;11.45;;;;;;;;;;5033832;28;20221;-58
2022/12/08 08:11:48;;;;;;;18.15;11.93;;;;;;;;;;5033944;28;20545;-58
2022/12/08 08:14:15;;;;;;;18.17;10.85;;;;;;;;;;5033677;28;20214;-58
2022/12/08 08:16:46;;;;;;;18.35;11.40;;;;;;;;;;5034048;28;20218;-58
2022/12/08 08:19:12;;;;;;;16.08;10.93;;;;;;;;;;5031798;28;20210;-57
2022/12/08 08:21:38;;;;;;;16.77;11.65;;;;;;;;;;5034005;28;20222;-58
2022/12/08 08:24:05;;;;;;;16.45;11.35;;;;;;;;;;5033365;28;20214;-58
2022/12/08 08:26:31;;;;;;;17.95;11.23;;;;;;;;;;5033696;28;20404;-58
2022/12/08 08:28:57;;;;;;;19.48;12.75;;;;;;;;;;5032755;28;20421;-57
2022/12/08 08:31:24;;;;;;;17.88;10.93;;;;;;;;;;5032889;28;20234;-57
2022/12/08 08:33:52;;;;;;;15.30;10.70;;;;;;;;;;5032840;28;20289;-56
2022/12/08 08:36:18;;;;;;;16.90;11.50;;;;;;;;;;5026656;28;20472;-56
2022/12/08 08:38:45;;;;;;;17.33;11.35;;;;;;;;;;5020455;28;20570;-56
2022/12/08 08:41:11;;;;;;;12.05;9.73;;;;;;;;;;5032848;28;20210;-58
2022/12/08 08:43:38;;;;;;;16.33;10.75;;;;;;;;;;5033379;28;20214;-58
2022/12/08 08:46:05;;;;;;;15.95;10.80;;;;;;;;;;5033430;28;20214;-57
2022/12/08 08:48:32;;;;;;;16.30;10.52;;;;;;;;;;5033644;28;20210;-56
2022/12/08 08:51:06;;;;;;;15.95;10.18;;;;;;;;;;5033160;28;20229;-57
2022/12/08 08:53:32;;;;;;;14.27;10.00;;;;;;;;;;5032579;28;20222;-57
2022/12/08 08:55:59;;;;;;;15.43;10.35;;;;;;;;;;5033158;28;20219;-55
2022/12/08 08:58:25;;;;;;;13.02;10.10;;;;;;;;;;5033187;28;20216;-57
2022/12/08 09:00:52;;;;;;;13.90;10.00;;;;;;;;;;5033536;28;20551;-57
2022/12/08 09:03:18;;;;;;;12.43;10.32;;;;;;;;;;5033507;28;20216;-58
2022/12/08 09:05:45;;;;;;;14.52;9.27;;;;;;;;;;5033050;28;20447;-58
2022/12/08 09:08:12;;;;;;;14.50;9.85;;;;;;;;;;5033845;28;20772;-58
2022/12/08 09:10:38;;;;;;;13.07;9.77;;;;;;;;;;5032209;28;20214;-57
2022/12/08 09:13:05;;;;;;;12.50;9.85;;;;;;;;;;5032661;28;20236;-56
2022/12/08 09:15:31;;;;;;;13.82;10.15;;;;;;;;;;5033030;28;20213;-57
2022/12/08 09:17:57;;;;;;;14.20;9.18;;;;;;;;;;5032728;28;20224;-57
2022/12/08 09:20:24;;;;;;;13.50;10.27;;;;;;;;;;5032252;28;20495;-57
2022/12/08 09:22:51;;;;;;;13.18;9.30;;;;;;;;;;5032741;28;20217;-57
2022/12/08 09:25:18;;;;;;;11.95;9.05;;;;;;;;;;5032721;28;20216;-55
2022/12/08 09:27:45;;;;;;;14.88;9.05;;;;;;;;;;5032136;28;20397;-55
2022/12/08 09:30:11;;;;;;;10.70;9.18;;;;;;;;;;5033014;28;20327;-56
2022/12/08 09:32:37;;;;;;;11.88;9.43;;;;;;;;;;5033846;28;20229;-58
2022/12/08 09:35:04;;;;;;;12.27;9.38;;;;;;;;;;5032475;28;20261;-56
2022/12/08 09:37:30;;;;;;;16.67;9.55;;;;;;;;;;5032941;28;20232;-58
2022/12/08 09:39:56;;;;;;;13.40;9.20;;;;;;;;;;5032615;28;20213;-57
2022/12/08 09:42:29;;;;;;;11.65;8.95;;;;;;;;;;5032439;28;20254;-58
2022/12/08 09:44:58;;;;;;;11.43;8.02;;;;;;;;;;5024467;28;20214;-57
2022/12/08 09:47:27;;;;;;;13.60;8.77;;;;;;;;;;5032164;28;20229;-59
2022/12/08 09:49:56;;;;;;;14.13;8.88;;;;;;;;;;5026452;28;20205;-60
2022/12/08 09:52:25;;;;;;;14.77;9.20;;;;;;;;;;5031902;28;20522;-59
2022/12/08 09:54:51;;;;;;;10.27;9.00;;;;;;;;;;5031428;28;20504;-59
2022/12/08 09:57:20;;;;;;;10.93;8.90;;;;;;;;;;5032535;28;20615;-59
2022/12/08 09:59:49;;;;;;;10.85;8.93;;;;;;;;;;5031087;28;20228;-57
2022/12/08 10:02:20;;;;;;;11.25;8.45;;;;;;;;;;5032068;28;20210;-57
2022/12/08 10:04:46;;;;;;;11.30;8.40;;;;;;;;;;5032005;28;20816;-58
2022/12/08 10:07:16;;;;;;;9.35;7.88;;;;;;;;;;5032083;28;20220;-58
2022/12/08 10:09:46;;;;;;;12.32;8.73;;;;;;;;;;5032514;28;20546;-57
2022/12/08 10:12:16;;;;;;;10.13;8.30;;;;;;;;;;5030344;28;20301;-57
2022/12/08 10:14:43;;;;;;;10.32;8.68;;;;;;;;;;5031473;28;20467;-58
2022/12/08 10:17:16;;;;;;;11.55;8.63;;;;;;;;;;5031438;28;20213;-57
2022/12/08 10:19:43;;;;;;;13.60;9.18;;;;;;;;;;5031819;28;20533;-57
2022/12/08 10:22:15;;;;;;;9.00;8.10;;;;;;;;;;5031675;28;20216;-58
2022/12/08 10:24:43;;;;;;;9.85;8.30;;;;;;;;;;5031919;28;20216;-58
2022/12/08 10:27:11;;;;;;;9.68;8.15;;;;;;;;;;5030849;28;20224;-57
2022/12/08 10:29:37;;;;;;;14.32;8.18;;;;;;;;;;5030799;28;20213;-57
2022/12/08 10:32:09;;;;;;;13.57;8.48;;;;;;;;;;5031851;28;20229;-57
2022/12/08 10:34:57;;;;;;;11.48;8.20;;;;;;;;;;5031376;28;20214;-57
2022/12/08 10:37:23;;;;;;;10.68;8.00;;;;;;;;;;5032476;28;20209;-57
2022/12/08 10:39:58;;;;;;;13.35;7.53;;;;;;;;;;5031916;28;20509;-57
2022/12/08 10:42:24;;;;;;;11.73;8.35;;;;;;;;;;5031390;28;20244;-56
2022/12/08 10:44:55;;;;;;;9.40;7.70;;;;;;;;;;5030963;28;20214;-58
2022/12/08 10:47:23;;;;;;;11.45;8.18;;;;;;;;;;5031901;28;20214;-57
2022/12/08 10:50:05;;;;;;;9.50;7.85;;;;;;;;;;5031766;28;20427;-57
2022/12/08 10:52:31;;;;;;;10.73;7.53;;;;;;;;;;5031129;28;20579;-57
2022/12/08 10:55:00;;;;;;;11.73;7.30;;;;;;;;;;5031183;28;20220;-55
2022/12/08 10:57:26;;;;;;;10.35;7.47;;;;;;;;;;5031008;28;20212;-56
2022/12/08 10:59:54;;;;;;;8.15;6.60;;;;;;;;;;5030619;28;20213;-56
2022/12/08 11:02:21;;;;;;;8.60;7.10;;;;;;;;;;5031299;28;20304;-58
2022/12/08 11:04:47;;;;;;;8.98;7.47;;;;;;;;;;5030283;28;20547;-57
2022/12/08 11:07:22;;;;;;;9.48;6.80;;;;;;;;;;5031663;28;20220;-57
2022/12/08 11:09:52;;;;;;;8.93;6.90;;;;;;;;;;5031742;28;20213;-57
2022/12/08 11:12:19;;;;;;;7.03;6.28;;;;;;;;;;5031304;28;20229;-56
2022/12/08 11:14:47;;;;;;;6.93;5.75;;;;;;;;;;5030756;28;20221;-58
2022/12/08 11:17:15;;;;;;;8.20;6.53;;;;;;;;;;5031256;28;20520;-57
2022/12/08 11:19:45;;;;;;;6.45;5.80;;;;;;;;;;5030875;28;20228;-56
2022/12/08 11:22:24;;;;;;;6.85;6.15;;;;;;;;;;5032157;28;20305;-58
2022/12/08 11:24:56;;;;;;;8.98;5.70;;;;;;;;;;5031096;28;20286;-58
2022/12/08 11:27:23;;;;;;;5.93;5.32;;;;;;;;;;5032116;28;20222;-58
2022/12/08 11:29:49;;;;;;;5.55;5.05;;;;;;;;;;5034261;28;20239;-58
2022/12/08 11:32:15;;;;;;;5.95;5.40;;;;;;;;;;5034373;28;20237;-57
2022/12/08 11:34:43;;;;;;;7.07;5.70;;;;;;;;;;5033490;28;20524;-57
2022/12/08 11:37:12;;;;;;;5.93;5.32;;;;;;;;;;5033930;28;20214;-58
2022/12/08 11:39:42;;;;;;;5.40;4.90;;;;;;;;;;5034569;28;20386;-57
2022/12/08 11:42:12;;;;;;;5.35;4.82;;;;;;;;;;5034616;28;20270;-57
2022/12/08 11:44:42;;;;;;;4.88;4.57;;;;;;;;;;5034183;28;20202;-58
2022/12/08 11:47:13;;;;;;;5.93;4.60;;;;;;;;;;5034828;28;20438;-57
2022/12/08 11:49:40;;;;;;;4.22;3.92;;;;;;;;;;5034425;28;20305;-58
2022/12/08 11:52:11;;;;;;;5.25;4.75;;;;;;;;;;5033706;28;20229;-57
2022/12/08 11:54:44;;;;;;;6.68;4.93;;;;;;;;;;5033094;28;20206;-58
2022/12/08 11:57:14;;;;;;;5.20;4.30;;;;;;;;;;5033832;28;20656;-56
2022/12/08 11:59:43;;;;;;;4.72;4.32;;;;;;;;;;5034605;28;20572;-56
2022/12/08 12:02:13;;;;;;;5.68;4.43;;;;;;;;;;5033864;28;20494;-57
2022/12/08 12:04:43;;;;;;;5.13;4.63;;;;;;;;;;5033577;28;20229;-57
2022/12/08 12:07:17;;;;;;;8.10;4.40;;;;;;;;;;5033874;28;20221;-56
2022/12/08 12:09:51;;;;;;;5.97;5.43;;;;;;;;;;5033866;28;20237;-57
2022/12/08 12:12:23;;;;;;;7.45;5.60;;;;;;;;;;5034090;28;20562;-57
2022/12/08 12:15:00;;;;;;;13.27;7.65;;;;;;;;;;5033872;28;20434;-58
2022/12/08 12:17:34;;;;;;;7.82;5.45;;;;;;;;;;5034447;28;20217;-57
2022/12/08 12:20:03;;;;;;;4.93;4.47;;;;;;;;;;5033289;28;20225;-57
2022/12/08 12:22:32;;;;;;;5.78;5.22;;;;;;;;;;5033916;28;20210;-58
2022/12/08 12:25:01;;;;;;;5.57;5.07;;;;;;;;;;5033771;28;20220;-58
2022/12/08 12:27:28;;;;;;;5.43;4.93;;;;;;;;;;5034689;28;20553;-56
2022/12/08 12:29:57;;;;;;;5.93;5.43;;;;;;;;;;5033616;28;20249;-57
2022/12/08 12:32:24;;;;;;;5.13;4.68;;;;;;;;;;5034215;28;20230;-57
2022/12/08 12:34:52;;;;;;;4.05;3.75;;;;;;;;;;5033328;28;20214;-58
2022/12/08 12:37:20;;;;;;;5.10;4.60;;;;;;;;;;5033221;28;20217;-58
2022/12/08 12:39:48;;;;;;;5.38;4.72;;;;;;;;;;5033398;28;20521;-57
2022/12/08 12:42:29;;;;;;;6.78;4.63;;;;;;;;;;5033747;28;20241;-59
2022/12/08 12:45:10;;;;;;;5.15;4.75;;;;;;;;;;5032906;28;20206;-58
2022/12/08 12:47:46;;;;;;;7.55;5.85;;;;;;;;;;5033436;28;20220;-57
2022/12/08 12:50:13;;;;;;;6.80;4.40;;;;;;;;;;5034078;28;20213;-57
2022/12/08 12:52:43;;;;;;;7.47;5.40;;;;;;;;;;5033026;28;20229;-58
2022/12/08 12:55:39;;;;;;;5.82;5.30;;;;;;;;;;5033597;28;20549;-58
2022/12/08 12:58:18;;;;;;;5.57;5.00;;;;;;;;;;5033890;28;20217;-59
2022/12/08 13:00:46;;;;;;;8.02;5.90;;;;;;;;;;5033327;28;20206;-57
2022/12/08 13:03:13;;;;;;;7.68;5.88;;;;;;;;;;5030990;28;20213;-57
2022/12/08 13:05:47;;;;;;;10.25;6.70;;;;;;;;;;5031952;28;20505;-57
2022/12/08 13:08:18;;;;;;;6.72;5.70;;;;;;;;;;5033548;28;20525;-57
2022/12/08 13:10:49;;;;;;;5.10;4.70;;;;;;;;;;5033567;28;20425;-58
2022/12/08 13:13:17;;;;;;;6.10;4.18;;;;;;;;;;5033254;28;20268;-58
2022/12/08 13:15:49;;;;;;;5.22;4.72;;;;;;;;;;5033285;28;20209;-57
2022/12/08 13:18:18;;;;;;;4.45;4.15;;;;;;;;;;5032424;28;20289;-57
2022/12/08 13:20:46;;;;;;;4.90;4.53;;;;;;;;;;5033527;28;20229;-56
2022/12/08 13:23:24;;;;;;;4.40;4.10;;;;;;;;;;5032505;28;20214;-57
2022/12/08 13:25:51;;;;;;;4.45;4.07;;;;;;;;;;5032759;28;20528;-57
2022/12/08 13:28:23;;;;;;;5.97;4.68;;;;;;;;;;5032216;28;20230;-57
2022/12/08 13:34:00;;;;;;;4.55;4.25;;;;;;;;;;5028593;28;20232;-57
2022/12/08 13:52:03;;;;;;;3.45;3.25;;;;;;;;;;5020815;28;20353;-56
2022/12/08 13:54:52;;;;;;;3.72;3.33;;;;;;;;;;5035095;28;20218;-57
2022/12/08 14:15:33;;;;;;;3.90;3.60;;;;;;;;;;5032334;28;20181;-56
2022/12/08 14:17:59;;;;;;;4.25;3.85;;;;;;;;;;5032574;28;20247;-59
2022/12/08 14:20:27;;;;;;;4.53;3.95;;;;;;;;;;5032330;28;20551;-59
2022/12/08 14:22:54;;;;;;;4.68;3.80;;;;;;;;;;5032043;28;20401;-58
2022/12/08 14:25:21;;;;;;;5.60;3.95;;;;;;;;;;5031335;28;20213;-59
2022/12/08 14:27:48;;;;;;;4.57;4.18;;;;;;;;;;5031612;28;20310;-59
2022/12/08 14:30:18;;;;;;;2.95;2.78;;;;;;;;;;5031626;28;20414;-57
2022/12/08 14:32:47;;;;;;;3.97;3.67;;;;;;;;;;5032268;28;20239;-58
2022/12/08 14:35:19;;;;;;;4.75;3.13;;;;;;;;;;5031261;28;20214;-57
2022/12/08 14:37:47;;;;;;;3.38;3.20;;;;;;;;;;5032092;28;20236;-60
2022/12/08 14:40:18;;;;;;;5.00;3.33;;;;;;;;;;5031839;28;20398;-60
2022/12/08 14:42:45;;;;;;;4.18;3.78;;;;;;;;;;5031882;28;20210;-59
2022/12/08 14:45:13;;;;;;;4.00;3.65;;;;;;;;;;5031004;28;20221;-56
2022/12/08 14:47:39;;;;;;;4.47;3.90;;;;;;;;;;5031551;28;20210;-57
2022/12/08 14:50:20;;;;;;;3.97;3.53;;;;;;;;;;5032274;28;20214;-57
2022/12/08 14:52:48;;;;;;;5.25;3.97;;;;;;;;;;5030733;28;20226;-55
2022/12/08 14:55:15;;;;;;;4.60;3.67;;;;;;;;;;5030999;28;20575;-56
2022/12/08 14:57:41;;;;;;;4.40;4.00;;;;;;;;;;5031287;28;20217;-57
2022/12/08 15:00:10;;;;;;;6.05;4.18;;;;;;;;;;5032068;28;20284;-56
2022/12/08 15:02:41;;;;;;;3.45;3.17;;;;;;;;;;5033485;28;20237;-57
2022/12/08 15:05:10;;;;;;;4.18;3.75;;;;;;;;;;5034595;28;20261;-58
2022/12/08 15:07:44;;;;;;;4.72;4.22;;;;;;;;;;5035557;28;20493;-55
2022/12/08 15:10:26;;;;;;;5.82;4.38;;;;;;;;;;5034803;28;20545;-57
2022/12/08 15:13:07;;;;;;;4.85;4.45;;;;;;;;;;5030815;28;20270;-57
2022/12/08 15:15:45;;;;;;;7.18;4.60;;;;;;;;;;5035034;28;20251;-58
2022/12/08 15:18:13;;;;;;;4.63;4.20;;;;;;;;;;5034996;28;20217;-57
2022/12/08 15:20:40;;;;;;;8.32;5.45;;;;;;;;;;5035007;28;20227;-57
2022/12/08 15:23:17;;;;;;;4.97;4.50;;;;;;;;;;5034126;28;20210;-56
2022/12/08 15:25:45;;;;;;;14.23;8.73;;;;;;;;;;5035334;28;20217;-57